Powhatan, Virginia
Current Conditions -  °F | °C
As of 3:35 AM on Friday 24 Oct 2014 (Local Time) from KW81 Reporting Station
Clear Clear  
Wind Chill: 46°   Ceiling: Unl
Heat Index: 49°   Visibility: 10mi
Dew Point: 40°   Wind: 8mph
Humidity: 71%   Direction: 290°WNW
Pressure: 29.97"   Gusts: NA
Location:  37.54°N, 77.92°W
Report Text: KW81 240735Z AUTO 29007KT 10SM CLR 10/05 A2997 RMK AO1 T00970046
Loading
Personal Weather Stations






























Interactive Weather Map
Tropical Storm Tracking
New forecast layout! Learn more

10-Day Weather Forecast

Advertisements
Track Severe Weather on mobile